Aerbrava en el facebook Aerbrava en el twitter Google+ Instagram Aerbrava en el youtube tumblr flikr pinterest
Aerbrava in English aerbrava en Español
Escola de Pilots
Telèfon 972234126 972 23 41 26
 
Aerbrava in English aerbrava en Español
Aerbrava - meteorologia

Informació meteorològica aeronàutica

 

En aquest apartat apareix la informació meteorològica aeronàutica que és utilitzada a les pràctiques dels alumnes de l’Escola de Pilots del nostre centre durant la seva formació, pel que pot no ser actual i s’hauria d’utilitzar pel seu propi compte i risc. AERBRAVA no es fa responsable del seu ús.

 

TEMPS ACTUAL

Satèl·lit Meteorològic

sat24.com

Servei Meteorològic de Catalunya

 

LEGE 240030Z 04002KT 9999 FEW050 BKN080 16/13 Q1018
LEGE 240000Z 05001KT 9999 FEW050 BKN080 16/13 Q1018
LEGE 232330Z 00000KT 9999 FEW050 BKN080 18/13 Q1018
LEGE 232300Z 00000KT 9999 FEW050 BKN080 19/12 Q1019
LEGE 232230Z 36002KT 9999 FEW050 BKN080 19/12 Q1018
LEGE 232200Z 04003KT 9999 FEW050 20/12 Q1019
LEGE 232130Z VRB01KT 9999 FEW050 20/12 Q1019
TAF LEGE 232300Z 2400/2424 VRB03KT 9999 FEW040 TX32/2413Z TN17/2406Z
BECMG 2410/2412 18010KT
TEMPO 2410/2416 18010G25KT
BECMG 2420/2422 VRB03KT

Aviation Weather

 
Aerbrava en el facebook Aerbrava en el twitter Google+ Instagram Aerbrava en el youtube tumblr flikr pinterest

¡CSS Vàlid!